createdAt,value
2022-10-08T00:01:03.010Z,99391.34
2022-10-08T00:03:33.150Z,99391.72
2022-10-08T00:06:04.153Z,99387.84
2022-10-08T00:08:34.052Z,99398.19
2022-10-08T00:11:04.201Z,99388.84
2022-10-08T00:13:40.861Z,99384.00
2022-10-08T00:16:24.125Z,99402.81
2022-10-08T00:18:53.612Z,99401.97
2022-10-08T00:21:23.851Z,99390.47
2022-10-08T00:23:53.400Z,99399.94
2022-10-08T00:26:25.938Z,99383.09
2022-10-08T00:28:55.889Z,99394.00
2022-10-08T00:31:26.399Z,99407.31
2022-10-08T00:33:56.491Z,99411.06
2022-10-08T00:36:25.809Z,99415.69
2022-10-08T00:39:05.543Z,99410.47
2022-10-08T00:41:34.964Z,99398.97
2022-10-08T00:44:03.878Z,99398.47
2022-10-08T00:46:42.080Z,99401.13
2022-10-08T00:49:11.521Z,99406.59
2022-10-08T00:51:44.260Z,99399.69
2022-10-08T00:54:13.029Z,99398.84
2022-10-08T00:56:41.589Z,99373.41
2022-10-08T00:59:10.655Z,99397.88
2022-10-08T01:01:41.239Z,99390.00
2022-10-08T01:04:09.713Z,99384.69
2022-10-08T01:06:53.732Z,99382.97
2022-10-08T01:09:32.100Z,99377.75
2022-10-08T01:12:17.852Z,99374.97
2022-10-08T01:14:53.193Z,99382.84
2022-10-08T01:17:33.685Z,99388.19
2022-10-08T01:20:18.822Z,99387.34
2022-10-08T01:23:03.813Z,99393.75
2022-10-08T01:25:33.317Z,99402.59
2022-10-08T01:28:13.986Z,99395.59
2022-10-08T01:30:54.548Z,99374.16
2022-10-08T01:33:27.149Z,99386.63
2022-10-08T01:35:58.564Z,99387.47
2022-10-08T01:38:30.400Z,99373.06
2022-10-08T01:41:00.387Z,99389.91
2022-10-08T01:43:31.821Z,99380.91
2022-10-08T01:46:05.805Z,99369.06
2022-10-08T01:48:36.016Z,99386.00
2022-10-08T01:51:17.860Z,99377.03
2022-10-08T01:53:48.075Z,99370.75
2022-10-08T01:56:19.224Z,99366.38
2022-10-08T01:58:58.141Z,99368.09
2022-10-08T02:01:30.422Z,99375.81
2022-10-08T02:04:16.561Z,99361.53
2022-10-08T02:06:49.151Z,99358.84
2022-10-08T02:09:16.812Z,99360.53
2022-10-08T02:11:43.801Z,99356.06
2022-10-08T02:14:11.792Z,99351.59
2022-10-08T02:16:46.977Z,99363.19
2022-10-08T02:19:42.167Z,99352.66
2022-10-08T02:22:11.222Z,99348.19
2022-10-08T02:24:49.789Z,99347.47
2022-10-08T02:27:19.487Z,99351.84
2022-10-08T02:29:58.118Z,99351.09
2022-10-08T02:32:34.229Z,99343.34
2022-10-08T02:35:18.356Z,99325.81
2022-10-08T02:38:08.779Z,99331.28
2022-10-08T02:40:41.159Z,99322.53
2022-10-08T02:43:16.271Z,99329.94
2022-10-08T02:45:49.886Z,99328.38
2022-10-08T02:48:25.173Z,99325.94
2022-10-08T02:50:55.256Z,99325.22
2022-10-08T02:53:24.087Z,99320.13
2022-10-08T02:56:04.704Z,99323.91
2022-10-08T02:58:32.397Z,99317.13
2022-10-08T03:01:08.821Z,99310.34
2022-10-08T03:03:45.702Z,99305.25
2022-10-08T03:06:14.783Z,99308.31
2022-10-08T03:08:46.210Z,99315.69
2022-10-08T03:11:13.957Z,99298.25
2022-10-08T03:13:45.148Z,99314.72
2022-10-08T03:16:16.205Z,99310.72
2022-10-08T03:18:44.859Z,99316.41
2022-10-08T03:21:14.383Z,99323.81
2022-10-08T03:23:41.922Z,99314.81
2022-10-08T03:26:08.755Z,99325.22
2022-10-08T03:28:35.711Z,99328.09
2022-10-08T03:31:06.614Z,99322.31
2022-10-08T03:33:34.620Z,99323.38
2022-10-08T03:36:01.772Z,99329.06
2022-10-08T03:38:29.053Z,99332.09
2022-10-08T03:40:57.515Z,99323.47
2022-10-08T03:43:24.920Z,99329.03
2022-10-08T03:45:53.500Z,99320.34
2022-10-08T03:48:22.526Z,99325.81
2022-10-08T03:50:57.048Z,99326.03
2022-10-08T03:53:25.203Z,99334.13
2022-10-08T03:55:52.748Z,99335.31
2022-10-08T03:58:21.236Z,99344.38
2022-10-08T04:01:03.908Z,99332.63
2022-10-08T04:03:32.097Z,99335.28
2022-10-08T04:05:59.411Z,99342.66
2022-10-08T04:08:26.732Z,99334.91
2022-10-08T04:10:54.205Z,99338.03
2022-10-08T04:13:22.379Z,99341.41
2022-10-08T04:15:50.819Z,99339.84
2022-10-08T04:18:18.560Z,99337.41
2022-10-08T04:20:45.496Z,99344.66
2022-10-08T04:23:12.593Z,99343.09
2022-10-08T04:25:49.608Z,99342.97
2022-10-08T04:28:16.632Z,99352.03
2022-10-08T04:30:43.978Z,99348.41
2022-10-08T04:33:11.081Z,99356.38
2022-10-08T04:35:38.722Z,99362.78
2022-10-08T04:38:05.637Z,99355.75
2022-10-08T04:40:32.550Z,99353.22
2022-10-08T04:42:59.405Z,99357.78
2022-10-08T04:45:26.324Z,99364.06
2022-10-08T04:47:53.424Z,99362.50
2022-10-08T04:50:20.352Z,99369.00
2022-10-08T04:52:47.885Z,99369.97
2022-10-08T04:55:15.012Z,99362.22
2022-10-08T04:57:41.892Z,99360.53
2022-10-08T05:00:24.210Z,99357.13
2022-10-08T05:02:51.532Z,99368.00
2022-10-08T05:05:19.106Z,99370.53
2022-10-08T05:07:46.017Z,99369.91
2022-10-08T05:10:13.169Z,99366.53
2022-10-08T05:12:40.244Z,99378.09
2022-10-08T05:15:07.815Z,99375.06
2022-10-08T05:17:35.150Z,99378.56
2022-10-08T05:20:02.541Z,99373.56
2022-10-08T05:22:29.512Z,99375.50
2022-10-08T05:24:56.450Z,99376.56
2022-10-08T05:27:23.383Z,99374.13
2022-10-08T05:29:50.331Z,99381.38
2022-10-08T05:32:17.461Z,99387.88
2022-10-08T05:34:44.445Z,99388.19
2022-10-08T05:37:11.357Z,99393.63
2022-10-08T05:39:38.383Z,99396.38
2022-10-08T05:42:05.351Z,99400.84
2022-10-08T05:44:37.247Z,99402.66
2022-10-08T05:47:04.843Z,99407.97
2022-10-08T05:49:32.163Z,99389.31
2022-10-08T05:51:59.070Z,99417.00
2022-10-08T05:54:26.193Z,99419.78
2022-10-08T05:56:53.125Z,99418.94
2022-10-08T05:59:43.714Z,99420.84
2022-10-08T06:02:31.166Z,99422.88
2022-10-08T06:05:18.140Z,99429.13
2022-10-08T06:08:05.036Z,99437.22
2022-10-08T06:10:51.948Z,99435.50
2022-10-08T06:13:39.637Z,99433.81
2022-10-08T06:16:29.556Z,99433.81
2022-10-08T06:19:17.143Z,99437.31
2022-10-08T06:22:04.312Z,99441.03
2022-10-08T06:24:51.398Z,99444.31
2022-10-08T06:27:38.261Z,99450.50
2022-10-08T06:30:25.590Z,99446.00
2022-10-08T06:33:12.544Z,99431.16
2022-10-08T06:35:59.395Z,99443.34
2022-10-08T06:38:46.393Z,99446.88
2022-10-08T06:41:33.327Z,99454.84
2022-10-08T06:44:20.933Z,99454.84
2022-10-08T06:47:07.865Z,99457.50
2022-10-08T06:49:55.220Z,99454.09
2022-10-08T06:52:42.200Z,99453.38
2022-10-08T06:55:29.409Z,99451.66
2022-10-08T06:58:16.336Z,99456.13
2022-10-08T07:01:03.285Z,99460.59
2022-10-08T07:03:50.426Z,99460.59
2022-10-08T07:06:38.167Z,99454.72
2022-10-08T07:09:25.411Z,99465.16
2022-10-08T07:12:12.535Z,99468.66
2022-10-08T07:14:59.511Z,99464.22
2022-10-08T07:17:46.548Z,99472.88
2022-10-08T07:20:33.399Z,99471.84
2022-10-08T07:23:20.415Z,99477.06
2022-10-08T07:26:20.760Z,99475.00
2022-10-08T07:29:18.006Z,99486.50
2022-10-08T07:32:04.806Z,99482.78
2022-10-08T07:34:51.782Z,99490.66
2022-10-08T07:37:38.959Z,99486.16
2022-10-08T07:40:26.484Z,99491.38
2022-10-08T07:43:17.643Z,99500.97
2022-10-08T07:46:06.565Z,99497.22
2022-10-08T07:48:53.664Z,99486.28
2022-10-08T07:51:41.156Z,99495.00
2022-10-08T07:54:28.888Z,99496.56
2022-10-08T07:57:15.729Z,99498.25
2022-10-08T08:00:02.618Z,99490.94
2022-10-08T08:02:59.354Z,99496.88
2022-10-08T08:05:46.324Z,99498.34
2022-10-08T08:08:33.103Z,99505.16
2022-10-08T08:11:21.764Z,99505.06
2022-10-08T08:14:09.244Z,99508.44
2022-10-08T08:16:56.288Z,99503.00
2022-10-08T08:19:43.294Z,99507.38
2022-10-08T08:22:30.196Z,99507.28
2022-10-08T08:25:17.188Z,99511.50
2022-10-08T08:28:04.202Z,99494.94
2022-10-08T08:30:51.116Z,99511.06
2022-10-08T08:33:17.988Z,99505.53
2022-10-08T08:35:52.887Z,99507.97
2022-10-08T08:38:39.881Z,99518.28
2022-10-08T08:41:45.755Z,99520.72
2022-10-08T08:44:40.903Z,99517.94
2022-10-08T08:47:54.291Z,99518.69
2022-10-08T08:50:48.981Z,99516.78
2022-10-08T08:53:36.259Z,99515.59
2022-10-08T08:56:25.751Z,99510.03
2022-10-08T08:59:25.813Z,99519.38
2022-10-08T09:02:18.232Z,99513.72
2022-10-08T09:05:13.222Z,99519.56
2022-10-08T09:08:07.993Z,99517.28
2022-10-08T09:11:17.214Z,99521.19
2022-10-08T09:14:19.151Z,99521.59
2022-10-08T09:17:06.835Z,99513.63
2022-10-08T09:20:00.441Z,99526.75
2022-10-08T09:22:55.695Z,99500.81
2022-10-08T09:25:45.803Z,99523.59
2022-10-08T09:28:58.262Z,99511.03
2022-10-08T09:31:47.213Z,99520.88
2022-10-08T09:34:34.328Z,99521.13
2022-10-08T09:37:21.235Z,99526.75
2022-10-08T09:40:38.448Z,99520.34
2022-10-08T09:43:37.608Z,99522.78
2022-10-08T09:46:32.155Z,99520.97
2022-10-08T09:49:55.584Z,99522.53
2022-10-08T09:52:47.251Z,99522.41
2022-10-08T09:55:41.340Z,99519.75
2022-10-08T09:58:38.320Z,99533.06
2022-10-08T10:01:35.703Z,99525.63
2022-10-08T10:04:23.562Z,99523.94
2022-10-08T10:07:14.125Z,99525.03
2022-10-08T10:10:03.685Z,99522.84
2022-10-08T10:12:54.580Z,99506.34
2022-10-08T10:15:46.970Z,99523.28
2022-10-08T10:18:53.785Z,99531.50
2022-10-08T10:21:49.787Z,99525.53
2022-10-08T10:24:48.720Z,99527.56
2022-10-08T10:27:43.667Z,99504.53
2022-10-08T10:30:37.306Z,99525.47
2022-10-08T10:33:33.628Z,99521.16
2022-10-08T10:36:37.623Z,99509.13
2022-10-08T10:39:28.380Z,99514.59
2022-10-08T10:42:24.136Z,99513.78
2022-10-08T10:45:11.101Z,99502.31
2022-10-08T10:47:57.925Z,99498.00
2022-10-08T10:51:08.285Z,99494.53
2022-10-08T10:54:02.164Z,99498.94
2022-10-08T10:56:56.780Z,99484.91
2022-10-08T11:00:06.050Z,99496.50
2022-10-08T11:03:12.062Z,99493.84
2022-10-08T11:06:03.099Z,99495.56
2022-10-08T11:09:07.912Z,99496.59
2022-10-08T11:12:32.996Z,99490.56
2022-10-08T11:15:25.679Z,99489.00
2022-10-08T11:18:27.556Z,99494.38
2022-10-08T11:21:45.839Z,99487.91
2022-10-08T11:24:47.568Z,99485.97
2022-10-08T11:27:59.249Z,99479.63
2022-10-08T11:31:02.420Z,99478.19
2022-10-08T11:33:50.327Z,99482.84
2022-10-08T11:36:46.196Z,99473.41
2022-10-08T11:39:52.682Z,99474.56
2022-10-08T11:42:59.430Z,99471.31
2022-10-08T11:45:51.878Z,99473.41
2022-10-08T11:48:54.242Z,99470.16
2022-10-08T11:51:40.995Z,99472.97
2022-10-08T11:54:51.652Z,99469.44
2022-10-08T11:58:07.647Z,99462.81
2022-10-08T12:01:00.025Z,99460.56
2022-10-08T12:03:50.893Z,99464.63
2022-10-08T12:06:46.747Z,99469.41
2022-10-08T12:09:44.237Z,99465.47
2022-10-08T12:12:34.433Z,99452.50
2022-10-08T12:15:21.470Z,99479.69
2022-10-08T12:18:31.092Z,99474.19
2022-10-08T12:21:46.939Z,99470.50
2022-10-08T12:24:59.631Z,99476.88
2022-10-08T12:27:52.003Z,99474.34
2022-10-08T12:30:39.024Z,99492.53
2022-10-08T12:33:29.199Z,99491.84
2022-10-08T12:36:27.991Z,99494.97
2022-10-08T12:40:00.188Z,99502.59
2022-10-08T12:42:53.066Z,99495.84
2022-10-08T12:45:54.265Z,99497.81
2022-10-08T12:49:07.537Z,99511.63
2022-10-08T12:52:20.826Z,99516.97
2022-10-08T12:55:13.608Z,99495.22
2022-10-08T12:58:01.415Z,99519.50
2022-10-08T13:00:54.248Z,99508.09
2022-10-08T13:03:41.605Z,99524.03
2022-10-08T13:06:54.684Z,99525.00
2022-10-08T13:09:52.975Z,99522.59
2022-10-08T13:12:39.840Z,99521.19
2022-10-08T13:15:27.035Z,99519.06
2022-10-08T13:18:13.998Z,99527.38
2022-10-08T13:21:15.882Z,99521.31
2022-10-08T13:24:04.474Z,99509.47
2022-10-08T13:27:11.232Z,99524.41
2022-10-08T13:29:58.343Z,99526.91
2022-10-08T13:32:50.513Z,99531.41
2022-10-08T13:35:43.701Z,99527.69
2022-10-08T13:38:41.211Z,99535.56
2022-10-08T13:41:40.848Z,99539.75
2022-10-08T13:44:29.616Z,99536.75
2022-10-08T13:47:16.808Z,99547.16
2022-10-08T13:50:04.375Z,99551.06
2022-10-08T13:52:54.119Z,99543.19
2022-10-08T13:55:52.005Z,99551.31
2022-10-08T13:58:41.064Z,99556.78
2022-10-08T14:01:27.996Z,99566.06
2022-10-08T14:04:14.923Z,99563.66
2022-10-08T14:07:04.372Z,99576.56
2022-10-08T14:09:51.595Z,99573.31
2022-10-08T14:12:43.582Z,99585.38
2022-10-08T14:15:33.138Z,99574.34
2022-10-08T14:18:20.086Z,99575.13
2022-10-08T14:21:11.320Z,99598.63
2022-10-08T14:23:58.207Z,99596.34
2022-10-08T14:26:45.151Z,99593.47
2022-10-08T14:29:31.991Z,99599.19
2022-10-08T14:32:22.989Z,99591.56
2022-10-08T14:35:09.900Z,99603.47
2022-10-08T14:37:57.587Z,99597.69
2022-10-08T14:40:44.564Z,99602.41
2022-10-08T14:43:31.894Z,99601.94
2022-10-08T14:46:19.261Z,99600.38
2022-10-08T14:49:06.199Z,99604.25
2022-10-08T14:51:53.153Z,99607.19
2022-10-08T14:54:40.414Z,99610.22
2022-10-08T14:57:27.456Z,99605.16
2022-10-08T15:00:14.464Z,99622.28
2022-10-08T15:03:01.307Z,99621.78
2022-10-08T15:05:48.249Z,99629.22
2022-10-08T15:08:35.151Z,99629.47
2022-10-08T15:11:23.657Z,99635.88
2022-10-08T15:14:13.082Z,99628.25
2022-10-08T15:16:59.956Z,99631.19
2022-10-08T15:19:46.768Z,99631.41
2022-10-08T15:22:33.593Z,99623.78
2022-10-08T15:25:20.493Z,99621.50
2022-10-08T15:28:07.546Z,99628.16
2022-10-08T15:30:54.477Z,99630.44
2022-10-08T15:33:41.435Z,99629.81
2022-10-08T15:36:42.292Z,99627.88
2022-10-08T15:39:37.639Z,99643.16
2022-10-08T15:42:24.525Z,99644.25
2022-10-08T15:45:11.447Z,99641.84
2022-10-08T15:47:58.371Z,99646.56
2022-10-08T15:50:45.299Z,99643.41
2022-10-08T15:53:32.409Z,99644.59
2022-10-08T15:56:19.337Z,99653.09
2022-10-08T15:59:06.139Z,99655.25
2022-10-08T16:01:53.024Z,99660.13
2022-10-08T16:04:39.943Z,99665.06
2022-10-08T16:07:29.801Z,99667.56
2022-10-08T16:10:16.681Z,99684.03
2022-10-08T16:13:03.709Z,99688.84
2022-10-08T16:15:56.772Z,99673.56
2022-10-08T16:18:43.672Z,99675.75
2022-10-08T16:21:32.908Z,99669.03
2022-10-08T16:24:20.732Z,99679.81
2022-10-08T16:27:07.687Z,99675.81
2022-10-08T16:29:54.654Z,99692.72
2022-10-08T16:32:41.568Z,99686.69
2022-10-08T16:35:28.466Z,99690.19
2022-10-08T16:38:15.355Z,99692.25
2022-10-08T16:41:02.376Z,99690.88
2022-10-08T16:43:49.325Z,99696.41
2022-10-08T16:46:40.380Z,99698.59
2022-10-08T16:49:34.850Z,99698.19
2022-10-08T16:52:25.328Z,99701.41
2022-10-08T16:55:12.231Z,99701.97
2022-10-08T16:57:59.128Z,99712.06
2022-10-08T17:00:45.944Z,99718.56
2022-10-08T17:03:32.801Z,99720.50
2022-10-08T17:06:19.807Z,99725.06
2022-10-08T17:09:07.049Z,99732.41
2022-10-08T17:11:54.264Z,99723.81
2022-10-08T17:14:41.128Z,99725.94
2022-10-08T17:17:28.041Z,99734.25
2022-10-08T17:20:14.973Z,99733.59
2022-10-08T17:23:02.033Z,99737.34
2022-10-08T17:25:48.986Z,99748.31
2022-10-08T17:28:35.859Z,99745.88
2022-10-08T17:31:24.729Z,99754.19
2022-10-08T17:34:12.207Z,99752.78
2022-10-08T17:37:01.464Z,99758.19
2022-10-08T17:39:48.540Z,99758.53
2022-10-08T17:42:35.529Z,99768.53
2022-10-08T17:45:22.363Z,99765.34
2022-10-08T17:48:09.528Z,99770.88
2022-10-08T17:50:57.031Z,99772.78
2022-10-08T17:53:44.073Z,99781.94
2022-10-08T17:56:33.647Z,99781.16
2022-10-08T17:59:20.808Z,99778.28
2022-10-08T18:02:07.732Z,99787.78
2022-10-08T18:04:54.877Z,99796.88
2022-10-08T18:07:41.718Z,99787.31
2022-10-08T18:10:29.518Z,99786.78
2022-10-08T18:13:16.468Z,99791.56
2022-10-08T18:16:03.416Z,99795.38
2022-10-08T18:18:50.632Z,99798.22
2022-10-08T18:21:38.843Z,99790.31
2022-10-08T18:24:25.797Z,99806.63
2022-10-08T18:27:12.759Z,99814.03
2022-10-08T18:29:59.678Z,99811.38
2022-10-08T18:32:46.853Z,99815.84
2022-10-08T18:35:33.909Z,99815.00
2022-10-08T18:38:20.806Z,99822.19
2022-10-08T18:41:07.749Z,99806.56
2022-10-08T18:43:55.231Z,99819.84
2022-10-08T18:46:43.523Z,99814.53
2022-10-08T18:49:33.134Z,99826.22
2022-10-08T18:52:21.674Z,99822.81
2022-10-08T18:55:09.008Z,99829.09
2022-10-08T18:57:56.130Z,99838.94
2022-10-08T19:00:43.164Z,99838.22
2022-10-08T19:03:30.087Z,99854.25
2022-10-08T19:06:17.093Z,99836.31
2022-10-08T19:09:04.605Z,99868.38
2022-10-08T19:11:53.996Z,99862.53
2022-10-08T19:14:42.616Z,99875.72
2022-10-08T19:17:29.658Z,99874.06
2022-10-08T19:20:16.523Z,99865.44
2022-10-08T19:23:03.362Z,99869.34
2022-10-08T19:25:50.344Z,99867.75
2022-10-08T19:28:37.334Z,99865.28
2022-10-08T19:31:37.526Z,99885.97
2022-10-08T19:34:27.099Z,99889.69
2022-10-08T19:37:14.048Z,99898.56
2022-10-08T19:40:01.100Z,99911.94
2022-10-08T19:42:48.099Z,99915.47
2022-10-08T19:45:35.185Z,99919.00
2022-10-08T19:48:22.105Z,99931.41
2022-10-08T19:51:08.932Z,99929.63
2022-10-08T19:53:56.557Z,99939.38
2022-10-08T19:56:43.472Z,99933.38
2022-10-08T19:59:31.729Z,99934.34
2022-10-08T20:02:18.590Z,99945.06
2022-10-08T20:05:05.720Z,99946.94
2022-10-08T20:07:52.504Z,99948.00
2022-10-08T20:10:39.648Z,99953.50
2022-10-08T20:13:26.435Z,99948.28
2022-10-08T20:16:13.364Z,99961.84
2022-10-08T20:19:00.378Z,99957.44
2022-10-08T20:21:53.460Z,99962.09
2022-10-08T20:24:40.468Z,99965.66
2022-10-08T20:27:27.473Z,99978.19
2022-10-08T20:30:14.279Z,99988.13
2022-10-08T20:33:01.308Z,99988.31
2022-10-08T20:35:48.092Z,99985.16
2022-10-08T20:38:35.130Z,99988.78
2022-10-08T20:41:25.455Z,99995.28
2022-10-08T20:44:15.111Z,99994.63
2022-10-08T20:47:02.218Z,99994.81
2022-10-08T20:49:49.354Z,99996.00
2022-10-08T20:52:36.622Z,100005.88
2022-10-08T20:55:24.966Z,100015.72
2022-10-08T20:58:11.830Z,100013.94
2022-10-08T21:00:58.875Z,100016.66
2022-10-08T21:03:45.971Z,100024.72
2022-10-08T21:06:38.940Z,100032.66
2022-10-08T21:09:26.382Z,100027.38
2022-10-08T21:12:13.419Z,100039.75
2022-10-08T21:15:00.410Z,100037.09
2022-10-08T21:17:47.440Z,100040.72
2022-10-08T21:20:34.367Z,100051.41
2022-10-08T21:23:21.266Z,100057.72
2022-10-08T21:26:08.268Z,100052.69
2022-10-08T21:28:55.197Z,100072.13
2022-10-08T21:31:43.303Z,100071.25
2022-10-08T21:34:32.433Z,100060.13
2022-10-08T21:37:19.392Z,100070.81
2022-10-08T21:40:06.366Z,100079.91
2022-10-08T21:42:53.372Z,100073.00
2022-10-08T21:45:40.447Z,100093.44
2022-10-08T21:48:27.257Z,100101.47
2022-10-08T21:51:30.612Z,100103.25
2022-10-08T21:54:19.783Z,100101.56
2022-10-08T21:57:06.799Z,100107.81
2022-10-08T21:59:54.056Z,100102.69
2022-10-08T22:02:41.229Z,100106.31
2022-10-08T22:05:29.935Z,100114.38
2022-10-08T22:08:17.113Z,100122.41
2022-10-08T22:11:03.968Z,100126.00
2022-10-08T22:13:51.029Z,100134.88
2022-10-08T22:16:39.778Z,100128.81
2022-10-08T22:19:26.734Z,100121.78
2022-10-08T22:22:13.567Z,100136.94
2022-10-08T22:25:00.519Z,100124.94
2022-10-08T22:27:47.474Z,100138.03
2022-10-08T22:30:34.569Z,100142.56
2022-10-08T22:33:21.939Z,100132.41
2022-10-08T22:36:08.975Z,100150.44
2022-10-08T22:38:58.280Z,100151.28
2022-10-08T22:41:47.737Z,100158.31
2022-10-08T22:44:34.568Z,100164.53
2022-10-08T22:47:21.511Z,100160.19
2022-10-08T22:50:08.445Z,100173.53
2022-10-08T22:52:55.510Z,100178.91
2022-10-08T22:55:42.348Z,100187.72
2022-10-08T22:58:29.246Z,100191.38
2022-10-08T23:01:23.554Z,100188.72
2022-10-08T23:04:11.689Z,100199.31
2022-10-08T23:06:58.628Z,100203.88
2022-10-08T23:09:46.552Z,100203.94
2022-10-08T23:12:33.380Z,100203.00
2022-10-08T23:15:20.328Z,100208.47
2022-10-08T23:18:07.428Z,100214.72
2022-10-08T23:20:55.986Z,100223.50
2022-10-08T23:23:42.924Z,100228.88
2022-10-08T23:26:30.252Z,100222.75
2022-10-08T23:29:19.540Z,100243.06
2022-10-08T23:32:06.558Z,100248.44
2022-10-08T23:34:53.484Z,100247.59
2022-10-08T23:37:40.754Z,100246.81
2022-10-08T23:40:27.879Z,100261.84
2022-10-08T23:43:14.952Z,100259.22
2022-10-08T23:46:02.092Z,100270.84
2022-10-08T23:48:49.272Z,100274.41
2022-10-08T23:51:37.580Z,100274.56
2022-10-08T23:54:24.622Z,100255.00
2022-10-08T23:57:11.431Z,100274.00
2022-10-08T23:59:58.416Z,100285.53
